sensor_id;sensor_type;location;lat;lon;timestamp;pressure;altitude;pressure_sealevel;temperature;humidity
50103;BME280;35993;52.604;10.078;2023-02-15T00:01:32;102633.56;;;2.48;100.00
50103;BME280;35993;52.604;10.078;2023-02-15T00:03:58;102639.69;;;2.50;100.00
50103;BME280;35993;52.604;10.078;2023-02-15T00:06:24;102630.91;;;2.48;100.00
50103;BME280;35993;52.604;10.078;2023-02-15T00:08:49;102638.44;;;2.42;100.00
50103;BME280;35993;52.604;10.078;2023-02-15T00:11:17;102642.59;;;2.46;100.00
50103;BME280;35993;52.604;10.078;2023-02-15T00:14:04;102631.13;;;2.44;100.00
50103;BME280;35993;52.604;10.078;2023-02-15T00:16:30;102624.06;;;2.43;100.00
50103;BME280;35993;52.604;10.078;2023-02-15T00:18:56;102623.44;;;2.40;100.00
50103;BME280;35993;52.604;10.078;2023-02-15T00:21:22;102627.44;;;2.34;100.00
50103;BME280;35993;52.604;10.078;2023-02-15T00:23:47;102621.56;;;2.29;100.00
50103;BME280;35993;52.604;10.078;2023-02-15T00:26:13;102615.00;;;2.33;100.00
50103;BME280;35993;52.604;10.078;2023-02-15T00:28:41;102616.31;;;2.27;100.00
50103;BME280;35993;52.604;10.078;2023-02-15T00:31:09;102614.84;;;2.23;100.00
50103;BME280;35993;52.604;10.078;2023-02-15T00:33:36;102619.56;;;2.20;100.00
50103;BME280;35993;52.604;10.078;2023-02-15T00:36:03;102609.09;;;2.17;100.00
50103;BME280;35993;52.604;10.078;2023-02-15T00:38:30;102607.38;;;2.16;100.00
50103;BME280;35993;52.604;10.078;2023-02-15T00:40:58;102599.06;;;2.07;100.00
50103;BME280;35993;52.604;10.078;2023-02-15T00:43:25;102593.78;;;2.06;100.00
50103;BME280;35993;52.604;10.078;2023-02-15T00:45:51;102599.91;;;2.08;100.00
50103;BME280;35993;52.604;10.078;2023-02-15T00:48:17;102595.88;;;2.02;100.00
50103;BME280;35993;52.604;10.078;2023-02-15T00:50:49;102596.31;;;1.96;100.00
50103;BME280;35993;52.604;10.078;2023-02-15T00:53:14;102592.78;;;1.95;100.00
50103;BME280;35993;52.604;10.078;2023-02-15T00:55:40;102600.22;;;1.92;100.00
50103;BME280;35993;52.604;10.078;2023-02-15T00:58:07;102598.38;;;1.92;100.00
50103;BME280;35993;52.604;10.078;2023-02-15T01:00:32;102599.56;;;1.88;100.00
50103;BME280;35993;52.604;10.078;2023-02-15T01:02:58;102591.03;;;1.83;100.00
50103;BME280;35993;52.604;10.078;2023-02-15T01:05:24;102601.75;;;1.83;100.00
50103;BME280;35993;52.604;10.078;2023-02-15T01:07:49;102585.75;;;1.82;100.00
50103;BME280;35993;52.604;10.078;2023-02-15T01:10:15;102598.44;;;1.79;100.00
50103;BME280;35993;52.604;10.078;2023-02-15T01:12:40;102587.19;;;1.74;100.00
50103;BME280;35993;52.604;10.078;2023-02-15T01:15:06;102594.34;;;1.74;100.00
50103;BME280;35993;52.604;10.078;2023-02-15T01:17:32;102591.91;;;1.71;100.00
50103;BME280;35993;52.604;10.078;2023-02-15T01:19:58;102586.03;;;1.66;100.00
50103;BME280;35993;52.604;10.078;2023-02-15T01:22:25;102586.88;;;1.66;100.00
50103;BME280;35993;52.604;10.078;2023-02-15T01:24:50;102585.41;;;1.62;100.00
50103;BME280;35993;52.604;10.078;2023-02-15T01:27:16;102588.97;;;1.62;100.00
50103;BME280;35993;52.604;10.078;2023-02-15T01:29:42;102576.41;;;1.63;100.00
50103;BME280;35993;52.604;10.078;2023-02-15T01:32:08;102573.75;;;1.63;100.00
50103;BME280;35993;52.604;10.078;2023-02-15T01:34:33;102570.44;;;1.59;100.00
50103;BME280;35993;52.604;10.078;2023-02-15T01:36:59;102568.81;;;1.57;100.00
50103;BME280;35993;52.604;10.078;2023-02-15T01:39:25;102565.97;;;1.47;100.00
50103;BME280;35993;52.604;10.078;2023-02-15T01:41:50;102556.84;;;1.50;100.00
50103;BME280;35993;52.604;10.078;2023-02-15T01:44:48;102558.03;;;1.45;100.00
50103;BME280;35993;52.604;10.078;2023-02-15T01:50:18;102557.84;;;1.49;100.00
50103;BME280;35993;52.604;10.078;2023-02-15T01:52:53;102559.44;;;1.51;100.00
50103;BME280;35993;52.604;10.078;2023-02-15T01:55:22;102564.28;;;1.46;100.00
50103;BME280;35993;52.604;10.078;2023-02-15T01:57:49;102569.72;;;1.44;100.00
50103;BME280;35993;52.604;10.078;2023-02-15T02:00:15;102557.84;;;1.49;100.00
50103;BME280;35993;52.604;10.078;2023-02-15T02:02:48;102545.31;;;1.49;100.00
50103;BME280;35993;52.604;10.078;2023-02-15T02:05:15;102544.03;;;1.42;100.00
50103;BME280;35993;52.604;10.078;2023-02-15T02:07:44;102537.84;;;1.41;100.00
50103;BME280;35993;52.604;10.078;2023-02-15T02:10:16;102540.09;;;1.35;100.00
50103;BME280;35993;52.604;10.078;2023-02-15T02:12:44;102534.34;;;1.28;100.00
50103;BME280;35993;52.604;10.078;2023-02-15T02:15:10;102532.13;;;1.22;100.00
50103;BME280;35993;52.604;10.078;2023-02-15T02:34:12;102518.13;;;1.05;100.00
50103;BME280;35993;52.604;10.078;2023-02-15T02:36:36;102517.16;;;1.06;100.00
50103;BME280;35993;52.604;10.078;2023-02-15T02:39:07;102516.41;;;1.04;100.00
50103;BME280;35993;52.604;10.078;2023-02-15T02:44:33;102508.38;;;1.04;100.00
50103;BME280;35993;52.604;10.078;2023-02-15T02:47:12;102500.78;;;0.98;100.00
50103;BME280;35993;52.604;10.078;2023-02-15T02:49:41;102497.59;;;0.93;100.00
50103;BME280;35993;52.604;10.078;2023-02-15T02:52:42;102494.28;;;0.89;100.00
50103;BME280;35993;52.604;10.078;2023-02-15T02:55:16;102489.59;;;0.80;100.00
50103;BME280;35993;52.604;10.078;2023-02-15T02:57:52;102490.34;;;0.82;100.00
50103;BME280;35993;52.604;10.078;2023-02-15T03:00:21;102487.03;;;0.78;100.00
50103;BME280;35993;52.604;10.078;2023-02-15T03:02:51;102481.88;;;0.75;100.00
50103;BME280;35993;52.604;10.078;2023-02-15T03:05:24;102480.94;;;0.76;100.00
50103;BME280;35993;52.604;10.078;2023-02-15T03:07:53;102481.16;;;0.73;100.00
50103;BME280;35993;52.604;10.078;2023-02-15T03:10:23;102475.81;;;0.73;100.00
50103;BME280;35993;52.604;10.078;2023-02-15T03:12:50;102481.47;;;0.69;100.00
50103;BME280;35993;52.604;10.078;2023-02-15T03:15:20;102481.88;;;0.75;100.00
50103;BME280;35993;52.604;10.078;2023-02-15T03:17:51;102474.34;;;0.69;100.00
50103;BME280;35993;52.604;10.078;2023-02-15T03:20:21;102475.41;;;0.67;100.00
50103;BME280;35993;52.604;10.078;2023-02-15T03:22:56;102471.84;;;0.66;100.00
50103;BME280;35993;52.604;10.078;2023-02-15T03:25:31;102467.47;;;0.65;100.00
50103;BME280;35993;52.604;10.078;2023-02-15T03:28:02;102468.22;;;0.67;100.00
50103;BME280;35993;52.604;10.078;2023-02-15T03:30:30;102458.28;;;0.69;100.00
50103;BME280;35993;52.604;10.078;2023-02-15T03:32:58;102454.03;;;0.67;100.00
50103;BME280;35993;52.604;10.078;2023-02-15T03:35:49;102453.91;;;0.68;100.00
50103;BME280;35993;52.604;10.078;2023-02-15T03:38:22;102449.75;;;0.64;100.00
50103;BME280;35993;52.604;10.078;2023-02-15T03:40:53;102446.31;;;0.62;100.00
50103;BME280;35993;52.604;10.078;2023-02-15T03:43:49;102451.03;;;0.58;100.00
50103;BME280;35993;52.604;10.078;2023-02-15T03:48:46;102453.38;;;0.63;100.00
50103;BME280;35993;52.604;10.078;2023-02-15T03:51:18;102457.97;;;0.61;100.00
50103;BME280;35993;52.604;10.078;2023-02-15T03:54:04;102454.75;;;0.56;100.00
50103;BME280;35993;52.604;10.078;2023-02-15T03:56:31;102450.19;;;0.58;100.00
50103;BME280;35993;52.604;10.078;2023-02-15T03:58:58;102458.72;;;0.63;100.00
50103;BME280;35993;52.604;10.078;2023-02-15T04:01:47;102457.66;;;0.53;100.00
50103;BME280;35993;52.604;10.078;2023-02-15T04:04:39;102462.91;;;0.54;100.00
50103;BME280;35993;52.604;10.078;2023-02-15T04:07:08;102465.47;;;0.56;100.00
50103;BME280;35993;52.604;10.078;2023-02-15T04:09:34;102465.34;;;0.57;100.00
50103;BME280;35993;52.604;10.078;2023-02-15T04:12:18;102455.06;;;0.51;100.00
50103;BME280;35993;52.604;10.078;2023-02-15T04:14:44;102457.75;;;0.51;100.00
50103;BME280;35993;52.604;10.078;2023-02-15T04:17:29;102454.88;;;0.54;100.00
50103;BME280;35993;52.604;10.078;2023-02-15T04:19:55;102453.28;;;0.52;100.00
50103;BME280;35993;52.604;10.078;2023-02-15T04:22:39;102444.31;;;0.40;100.00
50103;BME280;35993;52.604;10.078;2023-02-15T04:25:24;102436.72;;;0.34;100.00
50103;BME280;35993;52.604;10.078;2023-02-15T04:27:51;102443.44;;;0.39;100.00
50103;BME280;35993;52.604;10.078;2023-02-15T04:30:21;102443.78;;;0.35;100.00
50103;BME280;35993;52.604;10.078;2023-02-15T04:32:47;102440.34;;;0.32;100.00
50103;BME280;35993;52.604;10.078;2023-02-15T04:35:13;102440.03;;;0.37;100.00
50103;BME280;35993;52.604;10.078;2023-02-15T04:37:39;102441.53;;;0.41;100.00
50103;BME280;35993;52.604;10.078;2023-02-15T04:40:06;102438.09;;;0.39;100.00
50103;BME280;35993;52.604;10.078;2023-02-15T04:42:32;102427.28;;;0.41;100.00
50103;BME280;35993;52.604;10.078;2023-02-15T04:44:58;102420.88;;;0.30;100.00
50103;BME280;35993;52.604;10.078;2023-02-15T04:47:23;102429.78;;;0.31;100.00
50103;BME280;35993;52.604;10.078;2023-02-15T04:49:49;102427.19;;;0.29;100.00
50103;BME280;35993;52.604;10.078;2023-02-15T04:52:15;102427.41;;;0.26;100.00
50103;BME280;35993;52.604;10.078;2023-02-15T04:54:42;102423.44;;;0.19;100.00
50103;BME280;35993;52.604;10.078;2023-02-15T04:57:07;102413.41;;;0.23;100.00
50103;BME280;35993;52.604;10.078;2023-02-15T04:59:33;102420.78;;;0.19;100.00
50103;BME280;35993;52.604;10.078;2023-02-15T05:01:58;102413.84;;;0.16;100.00
50103;BME280;35993;52.604;10.078;2023-02-15T05:04:24;102409.38;;;0.17;100.00
50103;BME280;35993;52.604;10.078;2023-02-15T05:06:49;102410.56;;;0.13;100.00
50103;BME280;35993;52.604;10.078;2023-02-15T05:09:15;102408.84;;;0.12;100.00
50103;BME280;35993;52.604;10.078;2023-02-15T05:11:41;102404.22;;;0.14;100.00
50103;BME280;35993;52.604;10.078;2023-02-15T05:14:06;102411.63;;;0.23;100.00
50103;BME280;35993;52.604;10.078;2023-02-15T05:16:32;102408.06;;;0.23;100.00
50103;BME280;35993;52.604;10.078;2023-02-15T05:18:57;102403.25;;;0.15;100.00
50103;BME280;35993;52.604;10.078;2023-02-15T05:21:24;102406.91;;;0.14;100.00
50103;BME280;35993;52.604;10.078;2023-02-15T05:23:49;102401.78;;;0.11;100.00
50103;BME280;35993;52.604;10.078;2023-02-15T05:26:22;102402.84;;;0.08;100.00
50103;BME280;35993;52.604;10.078;2023-02-15T05:29:07;102401.34;;;0.04;100.00
50103;BME280;35993;52.604;10.078;2023-02-15T05:31:34;102405.81;;;0.04;100.00
50103;BME280;35993;52.604;10.078;2023-02-15T05:33:59;102403.81;;;0.07;100.00
50103;BME280;35993;52.604;10.078;2023-02-15T05:36:25;102401.88;;;0.09;100.00
50103;BME280;35993;52.604;10.078;2023-02-15T05:38:51;102404.97;;;0.03;100.00
50103;BME280;35993;52.604;10.078;2023-02-15T05:41:16;102401.34;;;0.04;100.00
50103;BME280;35993;52.604;10.078;2023-02-15T05:43:42;102398.81;;;0.03;100.00
50103;BME280;35993;52.604;10.078;2023-02-15T05:46:08;102393.66;;;-0.01;100.00
50103;BME280;35993;52.604;10.078;2023-02-15T05:48:34;102390.88;;;0.01;100.00
50103;BME280;35993;52.604;10.078;2023-02-15T05:53:28;102391.53;;;0.05;100.00
50103;BME280;35993;52.604;10.078;2023-02-15T05:55:54;102383.94;;;-0.02;100.00
50103;BME280;35993;52.604;10.078;2023-02-15T05:58:28;102385.44;;;0.03;100.00
50103;BME280;35993;52.604;10.078;2023-02-15T06:00:54;102374.97;;;-0.01;100.00
50103;BME280;35993;52.604;10.078;2023-02-15T06:03:19;102379.47;;;-0.01;100.00
50103;BME280;35993;52.604;10.078;2023-02-15T06:05:45;102385.75;;;-0.02;100.00
50103;BME280;35993;52.604;10.078;2023-02-15T06:08:10;102390.03;;;-0.12;100.00
50103;BME280;35993;52.604;10.078;2023-02-15T06:10:36;102398.22;;;-0.15;100.00
50103;BME280;35993;52.604;10.078;2023-02-15T06:13:01;102394.50;;;-0.13;100.00
50103;BME280;35993;52.604;10.078;2023-02-15T06:15:27;102394.50;;;-0.13;100.00
50103;BME280;35993;52.604;10.078;2023-02-15T06:17:52;102397.06;;;-0.11;100.00
50103;BME280;35993;52.604;10.078;2023-02-15T06:20:18;102393.75;;;-0.15;100.00
50103;BME280;35993;52.604;10.078;2023-02-15T06:22:43;102398.22;;;-0.15;100.00
50103;BME280;35993;52.604;10.078;2023-02-15T06:25:09;102386.16;;;-0.21;100.00
50103;BME280;35993;52.604;10.078;2023-02-15T06:27:36;102389.50;;;-0.18;100.00
50103;BME280;35993;52.604;10.078;2023-02-15T06:30:05;102390.44;;;-0.19;100.00
50103;BME280;35993;52.604;10.078;2023-02-15T06:32:31;102395.00;;;-0.21;100.00
50103;BME280;35993;52.604;10.078;2023-02-15T06:34:57;102393.94;;;-0.18;100.00
50103;BME280;35993;52.604;10.078;2023-02-15T06:37:22;102391.41;;;-0.20;100.00
50103;BME280;35993;52.604;10.078;2023-02-15T06:39:48;102386.06;;;-0.20;100.00
50103;BME280;35993;52.604;10.078;2023-02-15T06:42:13;102388.06;;;-0.23;100.00
50103;BME280;35993;52.604;10.078;2023-02-15T06:44:39;102390.00;;;-0.25;100.00
50103;BME280;35993;52.604;10.078;2023-02-15T06:47:04;102382.66;;;-0.22;100.00
50103;BME280;35993;52.604;10.078;2023-02-15T06:49:30;102392.56;;;-0.24;100.00
50103;BME280;35993;52.604;10.078;2023-02-15T06:51:56;102388.63;;;-0.18;100.00
50103;BME280;35993;52.604;10.078;2023-02-15T06:54:21;102384.88;;;-0.15;100.00
50103;BME280;35993;52.604;10.078;2023-02-15T06:56:47;102380.06;;;-0.23;100.00
50103;BME280;35993;52.604;10.078;2023-02-15T06:59:12;102379.22;;;-0.24;100.00
50103;BME280;35993;52.604;10.078;2023-02-15T07:01:38;102388.00;;;-0.22;100.00
50103;BME280;35993;52.604;10.078;2023-02-15T07:04:04;102388.94;;;-0.23;100.00
50103;BME280;35993;52.604;10.078;2023-02-15T07:06:33;102388.00;;;-0.22;100.00
50103;BME280;35993;52.604;10.078;2023-02-15T07:08:59;102376.56;;;-0.24;100.00
50103;BME280;35993;52.604;10.078;2023-02-15T07:11:25;102388.19;;;-0.25;100.00
50103;BME280;35993;52.604;10.078;2023-02-15T07:14:09;102383.72;;;-0.24;100.00
50103;BME280;35993;52.604;10.078;2023-02-15T07:16:34;102387.44;;;-0.27;100.00
50103;BME280;35993;52.604;10.078;2023-02-15T07:19:00;102393.22;;;-0.20;100.00
50103;BME280;35993;52.604;10.078;2023-02-15T07:21:26;102386.06;;;-0.20;100.00
50103;BME280;35993;52.604;10.078;2023-02-15T07:23:51;102378.47;;;-0.13;100.00
50103;BME280;35993;52.604;10.078;2023-02-15T07:26:17;102393.66;;;-0.13;100.00
50103;BME280;35993;52.604;10.078;2023-02-15T07:28:43;102390.97;;;-0.13;100.00
50103;BME280;35993;52.604;10.078;2023-02-15T07:31:09;102385.94;;;-0.18;100.00
50103;BME280;35993;52.604;10.078;2023-02-15T07:33:34;102383.19;;;-0.17;100.00
50103;BME280;35993;52.604;10.078;2023-02-15T07:36:02;102384.88;;;-0.15;100.00
50103;BME280;35993;52.604;10.078;2023-02-15T07:38:39;102379.47;;;-0.14;100.00
50103;BME280;35993;52.604;10.078;2023-02-15T07:41:08;102389.06;;;-0.11;100.00
50103;BME280;35993;52.604;10.078;2023-02-15T07:43:36;102388.72;;;-0.07;100.00
50103;BME280;35993;52.604;10.078;2023-02-15T07:46:04;102379.78;;;-0.06;100.00
50103;BME280;35993;52.604;10.078;2023-02-15T07:48:30;102380.19;;;-0.12;100.00
50103;BME280;35993;52.604;10.078;2023-02-15T07:51:04;102382.56;;;-0.07;100.00
50103;BME280;35993;52.604;10.078;2023-02-15T07:53:30;102379.47;;;-0.01;100.00
50103;BME280;35993;52.604;10.078;2023-02-15T07:56:00;102373.91;;;0.02;100.00
50103;BME280;35993;52.604;10.078;2023-02-15T07:58:26;102372.63;;;0.08;100.00
50103;BME280;35993;52.604;10.078;2023-02-15T08:01:13;102381.47;;;0.08;100.00
50103;BME280;35993;52.604;10.078;2023-02-15T08:03:38;102369.97;;;0.08;100.00
50103;BME280;35993;52.604;10.078;2023-02-15T08:06:04;102359.47;;;0.05;100.00
50103;BME280;35993;52.604;10.078;2023-02-15T08:08:30;102357.22;;;0.11;100.00
50103;BME280;35993;52.604;10.078;2023-02-15T08:16:33;102354.97;;;0.31;100.00
50103;BME280;35993;52.604;10.078;2023-02-15T08:19:02;102352.63;;;0.26;100.00
50103;BME280;35993;52.604;10.078;2023-02-15T08:21:29;102348.88;;;0.29;100.00
50103;BME280;35993;52.604;10.078;2023-02-15T08:23:55;102349.09;;;0.39;100.00
50103;BME280;35993;52.604;10.078;2023-02-15T08:26:22;102352.38;;;0.55;100.00
50103;BME280;35993;52.604;10.078;2023-02-15T08:28:48;102343.78;;;0.63;100.00
50103;BME280;35993;52.604;10.078;2023-02-15T08:31:16;102334.69;;;0.65;100.00
50103;BME280;35993;52.604;10.078;2023-02-15T08:33:43;102337.13;;;0.69;100.00
50103;BME280;35993;52.604;10.078;2023-02-15T08:36:14;102330.06;;;0.68;100.00
50103;BME280;35993;52.604;10.078;2023-02-15T08:38:40;102341.53;;;0.70;100.00
50103;BME280;35993;52.604;10.078;2023-02-15T08:41:11;102323.00;;;0.79;100.00
50103;BME280;35993;52.604;10.078;2023-02-15T08:43:37;102329.69;;;0.85;100.00
50103;BME280;35993;52.604;10.078;2023-02-15T08:46:03;102328.91;;;0.96;100.00
50103;BME280;35993;52.604;10.078;2023-02-15T08:48:28;102318.09;;;0.97;100.00
50103;BME280;35993;52.604;10.078;2023-02-15T08:50:54;102324.22;;;1.11;100.00
50103;BME280;35993;52.604;10.078;2023-02-15T08:53:20;102320.25;;;1.17;100.00
50103;BME280;35993;52.604;10.078;2023-02-15T08:55:54;102321.84;;;1.19;100.00
50103;BME280;35993;52.604;10.078;2023-02-15T08:58:19;102308.84;;;1.26;100.00
50103;BME280;35993;52.604;10.078;2023-02-15T09:00:45;102306.56;;;1.33;100.00
50103;BME280;35993;52.604;10.078;2023-02-15T09:03:11;102307.09;;;1.49;100.00
50103;BME280;35993;52.604;10.078;2023-02-15T09:05:36;102306.50;;;1.57;100.00
50103;BME280;35993;52.604;10.078;2023-02-15T09:08:02;102301.41;;;1.65;100.00
50103;BME280;35993;52.604;10.078;2023-02-15T09:10:27;102312.84;;;1.78;100.00
50103;BME280;35993;52.604;10.078;2023-02-15T09:12:53;102313.47;;;1.82;100.00
50103;BME280;35993;52.604;10.078;2023-02-15T09:15:19;102315.69;;;1.88;100.00
50103;BME280;35993;52.604;10.078;2023-02-15T09:17:44;102315.31;;;1.93;100.00
50103;BME280;35993;52.604;10.078;2023-02-15T09:20:10;102323.97;;;2.08;100.00
50103;BME280;35993;52.604;10.078;2023-02-15T09:22:35;102312.41;;;1.96;100.00
50103;BME280;35993;52.604;10.078;2023-02-15T09:25:01;102313.00;;;1.88;100.00
50103;BME280;35993;52.604;10.078;2023-02-15T09:27:26;102309.34;;;1.89;100.00
50103;BME280;35993;52.604;10.078;2023-02-15T09:29:52;102309.34;;;2.01;100.00
50103;BME280;35993;52.604;10.078;2023-02-15T09:32:18;102309.47;;;2.22;100.00
50103;BME280;35993;52.604;10.078;2023-02-15T09:34:43;102299.47;;;2.35;100.00
50103;BME280;35993;52.604;10.078;2023-02-15T09:37:09;102311.66;;;2.39;100.00
50103;BME280;35993;52.604;10.078;2023-02-15T09:39:37;102313.34;;;2.40;100.00
50103;BME280;35993;52.604;10.078;2023-02-15T09:55:48;102307.38;;;3.24;100.00
50103;BME280;35993;52.604;10.078;2023-02-15T10:01:06;102308.69;;;3.51;100.00
50103;BME280;35993;52.604;10.078;2023-02-15T10:04:00;102316.88;;;3.50;100.00
50103;BME280;35993;52.604;10.078;2023-02-15T10:12:06;102303.31;;;3.72;100.00
50103;BME280;35993;52.604;10.078;2023-02-15T10:14:53;102300.81;;;3.81;100.00
50103;BME280;35993;52.604;10.078;2023-02-15T10:26:18;102287.03;;;4.36;100.00
50103;BME280;35993;52.604;10.078;2023-02-15T10:28:51;102286.34;;;4.43;100.00
50103;BME280;35993;52.604;10.078;2023-02-15T10:34:18;102290.22;;;4.61;100.00
50103;BME280;35993;52.604;10.078;2023-02-15T10:37:10;102288.53;;;4.69;100.00
50103;BME280;35993;52.604;10.078;2023-02-15T10:46:11;102287.13;;;5.04;100.00
50103;BME280;35993;52.604;10.078;2023-02-15T10:48:28;102280.31;;;5.10;100.00
50103;BME280;35993;52.604;10.078;2023-02-15T10:50:59;102279.63;;;5.08;100.00
50103;BME280;35993;52.604;10.078;2023-02-15T10:54:17;102273.53;;;5.16;100.00
50103;BME280;35993;52.604;10.078;2023-02-15T10:56:54;102274.78;;;5.31;100.00
50103;BME280;35993;52.604;10.078;2023-02-15T11:02:08;102268.69;;;5.39;100.00
50103;BME280;35993;52.604;10.078;2023-02-15T11:07:27;102265.50;;;5.63;100.00
50103;BME280;35993;52.604;10.078;2023-02-15T11:10:29;102262.75;;;5.83;100.00
50103;BME280;35993;52.604;10.078;2023-02-15T11:12:57;102263.72;;;5.91;100.00
50103;BME280;35993;52.604;10.078;2023-02-15T11:23:16;102260.19;;;6.19;100.00
50103;BME280;35993;52.604;10.078;2023-02-15T11:26:03;102255.31;;;6.32;100.00
50103;BME280;35993;52.604;10.078;2023-02-15T11:31:22;102246.22;;;6.33;100.00
50103;BME280;35993;52.604;10.078;2023-02-15T11:33:57;102243.22;;;6.36;100.00
50103;BME280;35993;52.604;10.078;2023-02-15T11:36:28;102243.44;;;6.43;100.00
50103;BME280;35993;52.604;10.078;2023-02-15T11:39:21;102240.94;;;6.60;100.00
50103;BME280;35993;52.604;10.078;2023-02-15T11:41:53;102243.25;;;6.54;100.00
50103;BME280;35993;52.604;10.078;2023-02-15T11:44:25;102236.09;;;6.63;100.00
50103;BME280;35993;52.604;10.078;2023-02-15T11:46:53;102228.84;;;6.82;100.00
50103;BME280;35993;52.604;10.078;2023-02-15T11:49:26;102237.16;;;6.88;100.00
50103;BME280;35993;52.604;10.078;2023-02-15T11:51:53;102240.19;;;7.03;100.00
50103;BME280;35993;52.604;10.078;2023-02-15T11:54:26;102241.72;;;7.06;100.00
50103;BME280;35993;52.604;10.078;2023-02-15T11:56:52;102240.78;;;7.15;100.00
50103;BME280;35993;52.604;10.078;2023-02-15T11:59:27;102223.84;;;7.13;100.00
50103;BME280;35993;52.604;10.078;2023-02-15T12:01:53;102225.88;;;7.11;100.00
50103;BME280;35993;52.604;10.078;2023-02-15T12:04:29;102212.50;;;7.28;100.00
50103;BME280;35993;52.604;10.078;2023-02-15T12:07:02;102218.75;;;7.28;100.00
50103;BME280;35993;52.604;10.078;2023-02-15T12:09:40;102208.63;;;7.30;100.00
50103;BME280;35993;52.604;10.078;2023-02-15T12:12:32;102205.50;;;7.43;100.00
50103;BME280;35993;52.604;10.078;2023-02-15T12:15:00;102203.34;;;7.47;100.00
50103;BME280;35993;52.604;10.078;2023-02-15T12:17:28;102199.47;;;7.49;100.00
50103;BME280;35993;52.604;10.078;2023-02-15T12:19:56;102202.66;;;7.45;100.00
50103;BME280;35993;52.604;10.078;2023-02-15T12:22:29;102200.84;;;7.53;100.00
50103;BME280;35993;52.604;10.078;2023-02-15T12:25:01;102205.63;;;7.68;100.00
50103;BME280;35993;52.604;10.078;2023-02-15T12:27:35;102190.16;;;7.78;100.00
50103;BME280;35993;52.604;10.078;2023-02-15T12:30:07;102195.44;;;7.88;100.00
50103;BME280;35993;52.604;10.078;2023-02-15T12:36:09;102187.16;;;7.98;99.64
50103;BME280;35993;52.604;10.078;2023-02-15T12:38:36;102189.06;;;8.06;100.00
50103;BME280;35993;52.604;10.078;2023-02-15T12:41:10;102183.03;;;8.20;100.00
50103;BME280;35993;52.604;10.078;2023-02-15T12:43:46;102186.09;;;8.33;100.00
50103;BME280;35993;52.604;10.078;2023-02-15T12:46:19;102176.78;;;8.36;98.94
50103;BME280;35993;52.604;10.078;2023-02-15T12:48:45;102168.84;;;8.34;98.36
50103;BME280;35993;52.604;10.078;2023-02-15T12:51:14;102165.66;;;8.39;97.45
50103;BME280;35993;52.604;10.078;2023-02-15T12:53:40;102164.13;;;8.45;95.67
50103;BME280;35993;52.604;10.078;2023-02-15T12:56:08;102165.50;;;8.49;94.73
50103;BME280;35993;52.604;10.078;2023-02-15T12:58:40;102173.31;;;8.60;96.22
50103;BME280;35993;52.604;10.078;2023-02-15T13:03:35;102167.38;;;8.73;95.13
50103;BME280;35993;52.604;10.078;2023-02-15T13:06:03;102164.69;;;8.65;92.09
50103;BME280;35993;52.604;10.078;2023-02-15T13:08:46;102151.50;;;8.53;90.08
50103;BME280;35993;52.604;10.078;2023-02-15T13:11:31;102148.09;;;8.51;90.60
50103;BME280;35993;52.604;10.078;2023-02-15T13:14:20;102145.75;;;8.65;90.74
50103;BME280;35993;52.604;10.078;2023-02-15T13:16:50;102145.06;;;8.79;90.14
50103;BME280;35993;52.604;10.078;2023-02-15T13:19:37;102146.25;;;8.85;88.18
50103;BME280;35993;52.604;10.078;2023-02-15T13:22:10;102144.03;;;8.80;86.15
50103;BME280;35993;52.604;10.078;2023-02-15T13:24:57;102138.47;;;8.90;86.92
50103;BME280;35993;52.604;10.078;2023-02-15T13:27:29;102138.63;;;8.97;86.73
50103;BME280;35993;52.604;10.078;2023-02-15T13:29:58;102134.03;;;9.06;85.64
50103;BME280;35993;52.604;10.078;2023-02-15T13:32:33;102128.78;;;9.12;87.94
50103;BME280;35993;52.604;10.078;2023-02-15T13:35:03;102115.72;;;9.08;85.66
50103;BME280;35993;52.604;10.078;2023-02-15T13:40:27;102112.47;;;9.21;84.51
50103;BME280;35993;52.604;10.078;2023-02-15T13:51:43;102113.66;;;9.26;85.46
50103;BME280;35993;52.604;10.078;2023-02-15T13:55:23;102111.59;;;9.28;83.39
50103;BME280;35993;52.604;10.078;2023-02-15T13:57:42;102099.13;;;9.19;81.50
50103;BME280;35993;52.604;10.078;2023-02-15T14:00:31;102099.66;;;9.14;81.29
50103;BME280;35993;52.604;10.078;2023-02-15T14:17:05;102088.69;;;9.47;81.44
50103;BME280;35993;52.604;10.078;2023-02-15T14:19:46;102086.84;;;9.48;80.49
50103;BME280;35993;52.604;10.078;2023-02-15T14:30:20;102080.97;;;9.36;80.20
50103;BME280;35993;52.604;10.078;2023-02-15T14:32:51;102073.66;;;9.37;79.11
50103;BME280;35993;52.604;10.078;2023-02-15T14:35:21;102083.81;;;9.34;79.92
50103;BME280;35993;52.604;10.078;2023-02-15T14:48:51;102079.66;;;9.15;80.84
50103;BME280;35993;52.604;10.078;2023-02-15T14:54:07;102082.72;;;9.12;81.07
50103;BME280;35993;52.604;10.078;2023-02-15T14:56:33;102081.38;;;9.08;81.61
50103;BME280;35993;52.604;10.078;2023-02-15T14:59:13;102076.97;;;9.07;82.22
50103;BME280;35993;52.604;10.078;2023-02-15T15:01:40;102075.81;;;9.01;82.54
50103;BME280;35993;52.604;10.078;2023-02-15T15:04:12;102082.38;;;8.99;83.07
50103;BME280;35993;52.604;10.078;2023-02-15T15:06:43;102080.03;;;8.96;83.49
50103;BME280;35993;52.604;10.078;2023-02-15T15:09:13;102079.53;;;8.92;83.78
50103;BME280;35993;52.604;10.078;2023-02-15T15:11:49;102082.94;;;8.86;83.84
50103;BME280;35993;52.604;10.078;2023-02-15T15:17:00;102090.06;;;8.79;84.27
50103;BME280;35993;52.604;10.078;2023-02-15T15:22:18;102090.41;;;8.67;84.55
50103;BME280;35993;52.604;10.078;2023-02-15T15:27:41;102089.41;;;8.60;85.38